首页
METAR-TAF:

METAR-TAF

机场 :

圣艾蒂安, 法国

纬度: 45-32N, 经度: 004-18E, 海拔: 404米

当前天气观测

该预报发布于28分钟前的05:00 UTC
风速4节,风向
温度 11°C
湿度 100%
气压 1019 hPa
能见度10公里或以上
1500米以下无云,无积雨云

METAR: LFMH 170500Z AUTO 17004KT CAVOK 11/11 Q1019 TEMPO 3000 MIFG

时间: 07:28 (05:28 UTC)

预报

该预报发布于1小时和35分钟前的03:53 UTC
预报有效从17日的 03点(UTC)到 18日的 03点(UTC)
风速3节,风向多变
能见度10公里或以上
1500米以下无云,无积雨云
几率 40% :
短暂存在
从 17日的 03点(UTC)到 17日的 07点(UTC)
能見度: 3000
浅雾
几率 30% :
短暂存在
从 17日的 03点(UTC)到 17日的 06点(UTC)
能見度: 1000
碎片雾

TAF: LFMH 170353Z 1703/1803 VRB03KT CAVOK PROB40 TEMPO 1703/1707 3000 MIFG PROB30 TEMPO 1703/1706 1000 BCFG

超过4000个机场的气象观测和天气预报(METAR&TAF报告)。

可查询的气象台以黄色和红色小点在地图上表示。

将鼠标移到小点上方,可查看气象台名称。

然后点击查看天气观测和预报。

如需切换地图:点击带黑十字的绿色按钮放大地图;点击带横线的绿色按钮缩小地图;或者点击绿色箭头查看邻近地区的地图。


METAR-TAF: